CheckWX is a tool to help pilots better visualize weather data.  It is not intended as a substitute for an official pre-flight weather briefing.

14:02:58 UTC

CYBC METAR
Baie Comeau Airport
Baie-Comeau, Canada
Current

1 hour ago

CYBC 251300Z AUTO 07014G20KT 9SM OVC014 00/M03 A3002 RMK SLP169
Observed
Apr-25 @ 13:00 UTC
Wind
  • 070° at 14 KTS
  • Gusting to 20 KTS
Visibility
9 SM
Flight Rules
MVFR
Cloud Levels
  • Overcast at 1,400' AGL
Temperature
C / 32°F
Dewpoint
-3°C / 27°F
Humidity
80%
Altimeter
30.02" Hg
Pressure
1016.62 hPa
Previous

2 hours ago

CYBC 251200Z AUTO 07016G23KT 9SM OVC014 00/M03 A3001 RMK SLP164
Observed
Apr-25 @ 12:00 UTC
Wind
  • 070° at 16 KTS
  • Gusting to 23 KTS
Visibility
9 SM
Flight Rules
MVFR
Cloud Levels
  • Overcast at 1,400' AGL
Temperature
C / 32°F
Dewpoint
-3°C / 27°F
Humidity
80%
Altimeter
30.01" Hg
Pressure
1016.22 hPa
Previous

3 hours ago

CYBC 251100Z AUTO 07020G27KT 9SM OVC014 00/M02 A3000 RMK SLP162
Observed
Apr-25 @ 11:00 UTC
Wind
  • 070° at 20 KTS
  • Gusting to 27 KTS
Visibility
9 SM
Flight Rules
MVFR
Cloud Levels
  • Overcast at 1,400' AGL
Temperature
C / 32°F
Dewpoint
-2°C / 28°F
Humidity
87%
Altimeter
30" Hg
Pressure
1015.92 hPa